Time;durP1;ratioP1;P1;durP2;ratioP2;P2;SDS_P1;SDS_P2;PMS_P1;PMS_P2;Temp;Humidity;BMP_temperature;BMP_pressure;BME280_temperature;BME280_humidity;BME280_pressure;Samples;Min_cycle;Max_cycle;Signal;HPM_P1;HPM_P2
2022/09/26 00:01:03;;;;;;;9.65;4.70;;;;;;;;;;7358107;19;20029;-79
2022/09/26 00:03:28;;;;;;;7.65;4.60;;;;;;;;;;7359544;19;20505;-82
2022/09/26 00:05:58;;;;;;;12.67;4.70;;;;;;;;;;7349445;19;20056;-82
2022/09/26 00:08:23;;;;;;;9.60;4.45;;;;;;;;;;7358204;19;20877;-80
2022/09/26 00:10:53;;;;;;;10.53;5.40;;;;;;;;;;7360098;19;20014;-79
2022/09/26 00:13:18;;;;;;;10.95;4.70;;;;;;;;;;7337432;19;20716;-79
2022/09/26 00:15:45;;;;;;;11.57;4.90;;;;;;;;;;7349003;19;20422;-82
2022/09/26 00:18:11;;;;;;;12.13;5.75;;;;;;;;;;7346531;19;20288;-80
2022/09/26 00:20:36;;;;;;;13.43;6.03;;;;;;;;;;7310974;19;20560;-82
2022/09/26 00:23:01;;;;;;;11.88;5.82;;;;;;;;;;7355904;19;20643;-81
2022/09/26 00:25:26;;;;;;;14.63;6.03;;;;;;;;;;7360728;19;20267;-79
2022/09/26 00:27:51;;;;;;;12.40;6.00;;;;;;;;;;7352775;19;20278;-82
2022/09/26 00:30:16;;;;;;;10.93;5.32;;;;;;;;;;7354124;19;20298;-80
2022/09/26 00:32:42;;;;;;;14.63;6.22;;;;;;;;;;7354751;19;20025;-81
2022/09/26 00:35:07;;;;;;;13.57;5.53;;;;;;;;;;7347106;19;20697;-81
2022/09/26 00:37:32;;;;;;;11.27;5.72;;;;;;;;;;7362854;19;20499;-83
2022/09/26 00:39:57;;;;;;;12.25;4.70;;;;;;;;;;7352943;19;20034;-82
2022/09/26 00:42:23;;;;;;;13.70;5.90;;;;;;;;;;7368776;19;20014;-83
2022/09/26 00:44:55;;;;;;;13.23;6.00;;;;;;;;;;7367917;19;20044;-80
2022/09/26 00:47:23;;;;;;;11.35;5.60;;;;;;;;;;7361952;19;20014;-80
2022/09/26 00:49:51;;;;;;;10.93;5.90;;;;;;;;;;7363287;19;20028;-80
2022/09/26 00:52:18;;;;;;;15.40;6.25;;;;;;;;;;7368712;19;20908;-82
2022/09/26 00:54:45;;;;;;;13.30;6.30;;;;;;;;;;7366982;19;20006;-80
2022/09/26 00:57:14;;;;;;;11.48;5.72;;;;;;;;;;7371396;19;20604;-80
2022/09/26 00:59:42;;;;;;;11.00;4.90;;;;;;;;;;7361435;19;20079;-79
2022/09/26 01:02:08;;;;;;;10.60;5.03;;;;;;;;;;7367162;19;20475;-82
2022/09/26 01:04:34;;;;;;;14.13;5.32;;;;;;;;;;7363199;19;20006;-81
2022/09/26 01:07:01;;;;;;;9.45;5.20;;;;;;;;;;7356600;19;20018;-80
2022/09/26 01:09:27;;;;;;;13.23;6.30;;;;;;;;;;7358279;19;20003;-82
2022/09/26 01:11:52;;;;;;;13.57;5.55;;;;;;;;;;7365185;19;20014;-79
2022/09/26 01:14:18;;;;;;;10.38;6.30;;;;;;;;;;7320483;19;20587;-81
2022/09/26 01:16:46;;;;;;;8.48;5.03;;;;;;;;;;7358902;19;20062;-81
2022/09/26 01:19:16;;;;;;;10.60;5.53;;;;;;;;;;7347993;19;20293;-80
2022/09/26 01:21:41;;;;;;;11.63;5.80;;;;;;;;;;7351937;19;20024;-81
2022/09/26 01:24:19;;;;;;;13.20;5.50;;;;;;;;;;7356912;19;20002;-82
2022/09/26 01:26:44;;;;;;;12.40;4.88;;;;;;;;;;7360271;19;20797;-82
2022/09/26 01:29:28;;;;;;;10.77;5.00;;;;;;;;;;7361898;19;20101;-80
2022/09/26 01:35:08;;;;;;;10.10;4.90;;;;;;;;;;7359808;19;20020;-79
2022/09/26 01:37:39;;;;;;;11.10;5.13;;;;;;;;;;7367681;19;20018;-80
2022/09/26 01:40:18;;;;;;;14.57;4.82;;;;;;;;;;7358242;19;20790;-80
2022/09/26 01:42:52;;;;;;;9.20;5.35;;;;;;;;;;7365670;19;20010;-80
2022/09/26 01:45:20;;;;;;;11.02;5.20;;;;;;;;;;7366665;19;20007;-79
2022/09/26 01:47:49;;;;;;;10.80;5.35;;;;;;;;;;7350116;19;20099;-82
2022/09/26 01:50:23;;;;;;;11.82;5.43;;;;;;;;;;7355921;19;20822;-79
2022/09/26 01:52:51;;;;;;;9.80;5.22;;;;;;;;;;7328787;19;20125;-81
2022/09/26 01:55:29;;;;;;;9.88;4.72;;;;;;;;;;7356631;19;20021;-81
2022/09/26 01:57:54;;;;;;;8.93;4.80;;;;;;;;;;7364804;19;20221;-79
2022/09/26 02:00:19;;;;;;;12.13;5.20;;;;;;;;;;7369008;19;20007;-80
2022/09/26 02:02:45;;;;;;;9.90;5.78;;;;;;;;;;7363306;19;20303;-81
2022/09/26 02:05:14;;;;;;;12.40;5.50;;;;;;;;;;7327553;19;20014;-80
2022/09/26 02:07:50;;;;;;;11.02;5.57;;;;;;;;;;7351982;19;20054;-81
2022/09/26 02:10:19;;;;;;;11.02;5.25;;;;;;;;;;7345798;19;21681;-80
2022/09/26 02:12:46;;;;;;;12.65;5.53;;;;;;;;;;7356724;19;20032;-81
2022/09/26 02:15:13;;;;;;;16.20;9.48;;;;;;;;;;7357520;19;22084;-82
2022/09/26 02:17:40;;;;;;;17.60;9.45;;;;;;;;;;7356035;19;20028;-80
2022/09/26 02:20:10;;;;;;;22.40;10.20;;;;;;;;;;7357459;19;20021;-80
2022/09/26 02:22:35;;;;;;;14.93;7.75;;;;;;;;;;7362187;19;20510;-79
2022/09/26 02:25:01;;;;;;;13.68;7.22;;;;;;;;;;7366219;19;20080;-82
2022/09/26 02:27:26;;;;;;;12.35;6.47;;;;;;;;;;7358273;19;20652;-81
2022/09/26 02:29:52;;;;;;;13.50;7.43;;;;;;;;;;7321583;19;20026;-80
2022/09/26 02:32:19;;;;;;;21.05;8.38;;;;;;;;;;7350318;19;20006;-82
2022/09/26 02:34:46;;;;;;;15.38;8.13;;;;;;;;;;7350764;19;20584;-82
2022/09/26 02:37:12;;;;;;;16.55;8.18;;;;;;;;;;7361070;19;20145;-80
2022/09/26 02:39:37;;;;;;;13.10;7.03;;;;;;;;;;7364685;19;20006;-82
2022/09/26 02:42:06;;;;;;;20.05;8.82;;;;;;;;;;7361998;19;20395;-80
2022/09/26 02:44:54;;;;;;;20.40;11.57;;;;;;;;;;7353841;19;22307;-81
2022/09/26 02:47:26;;;;;;;23.77;11.88;;;;;;;;;;7367775;19;20503;-79
2022/09/26 02:50:01;;;;;;;34.03;17.80;;;;;;;;;;7333887;19;20014;-80
2022/09/26 02:52:38;;;;;;;31.67;17.98;;;;;;;;;;7347842;19;20046;-78
2022/09/26 02:55:09;;;;;;;28.20;14.77;;;;;;;;;;7363222;19;20624;-79
2022/09/26 02:57:43;;;;;;;30.75;16.80;;;;;;;;;;7365332;19;20344;-79
2022/09/26 03:00:20;;;;;;;27.25;16.08;;;;;;;;;;7360705;19;20033;-78
2022/09/26 03:02:45;;;;;;;29.45;17.02;;;;;;;;;;7365109;19;20022;-80
2022/09/26 03:05:13;;;;;;;27.50;16.95;;;;;;;;;;7357443;19;20037;-79
2022/09/26 03:07:47;;;;;;;25.13;14.88;;;;;;;;;;7353830;19;20255;-80
2022/09/26 03:10:13;;;;;;;24.02;12.32;;;;;;;;;;7367357;19;20013;-80
2022/09/26 03:12:38;;;;;;;23.73;11.00;;;;;;;;;;7359051;19;20576;-82
2022/09/26 03:15:04;;;;;;;23.25;15.40;;;;;;;;;;7324852;19;20664;-78
2022/09/26 03:17:30;;;;;;;21.25;12.35;;;;;;;;;;7354878;19;20021;-81
2022/09/26 03:20:01;;;;;;;25.98;13.02;;;;;;;;;;7352202;19;20006;-81
2022/09/26 03:22:26;;;;;;;24.35;15.32;;;;;;;;;;7361619;19;20078;-80
2022/09/26 03:24:51;;;;;;;25.27;16.63;;;;;;;;;;7366920;19;20102;-82
2022/09/26 03:27:17;;;;;;;28.33;19.00;;;;;;;;;;7353486;19;20078;-80
2022/09/26 03:29:42;;;;;;;29.73;18.10;;;;;;;;;;7361748;19;20255;-82
2022/09/26 03:32:08;;;;;;;32.27;19.73;;;;;;;;;;7362726;19;20055;-81
2022/09/26 03:34:34;;;;;;;33.05;19.23;;;;;;;;;;7328102;19;20966;-82
2022/09/26 03:36:59;;;;;;;36.00;21.10;;;;;;;;;;7358207;19;20010;-78
2022/09/26 03:39:24;;;;;;;32.03;20.23;;;;;;;;;;7365122;19;20673;-79
2022/09/26 03:41:49;;;;;;;38.15;22.23;;;;;;;;;;7341331;19;20041;-81
2022/09/26 03:44:15;;;;;;;36.33;22.40;;;;;;;;;;7358634;19;20021;-80
2022/09/26 03:46:41;;;;;;;37.13;22.45;;;;;;;;;;7368403;19;19998;-81
2022/09/26 03:49:07;;;;;;;39.47;24.85;;;;;;;;;;7345607;19;20015;-81
2022/09/26 03:51:32;;;;;;;40.22;24.77;;;;;;;;;;7371840;19;20573;-80
2022/09/26 03:53:57;;;;;;;39.80;25.73;;;;;;;;;;7372352;19;20110;-80
2022/09/26 03:56:25;;;;;;;42.63;26.58;;;;;;;;;;7342722;19;20012;-81
2022/09/26 03:58:50;;;;;;;43.17;27.10;;;;;;;;;;7368029;19;20777;-78
2022/09/26 04:01:17;;;;;;;48.97;27.87;;;;;;;;;;7367073;19;20014;-81
2022/09/26 04:03:43;;;;;;;48.17;27.75;;;;;;;;;;7368754;19;20782;-83
2022/09/26 04:06:09;;;;;;;51.00;28.33;;;;;;;;;;7360100;19;20029;-81
2022/09/26 04:08:38;;;;;;;47.78;28.58;;;;;;;;;;7366472;19;20026;-80
2022/09/26 04:11:05;;;;;;;48.38;28.05;;;;;;;;;;7370712;19;20094;-81
2022/09/26 04:13:31;;;;;;;52.08;29.10;;;;;;;;;;7363756;19;21028;-80
2022/09/26 04:15:57;;;;;;;45.92;27.88;;;;;;;;;;7361746;19;20003;-80
2022/09/26 04:18:22;;;;;;;46.42;27.02;;;;;;;;;;7356512;19;20038;-80
2022/09/26 04:20:47;;;;;;;43.42;26.48;;;;;;;;;;7364574;19;20026;-79
2022/09/26 04:23:12;;;;;;;45.03;26.73;;;;;;;;;;7355064;19;20367;-84
2022/09/26 04:25:37;;;;;;;47.90;25.55;;;;;;;;;;7363257;19;20007;-81
2022/09/26 04:28:03;;;;;;;39.63;25.73;;;;;;;;;;7355179;19;20066;-79
2022/09/26 04:30:29;;;;;;;45.53;26.20;;;;;;;;;;7361920;19;20495;-82
2022/09/26 04:32:54;;;;;;;39.47;24.63;;;;;;;;;;7362637;19;20002;-83
2022/09/26 04:35:19;;;;;;;39.10;25.67;;;;;;;;;;7361019;19;20092;-78
2022/09/26 04:37:45;;;;;;;39.90;25.25;;;;;;;;;;7358745;19;20019;-79
2022/09/26 04:40:10;;;;;;;38.20;23.83;;;;;;;;;;7366879;19;20260;-81
2022/09/26 04:42:35;;;;;;;39.95;24.60;;;;;;;;;;7359455;19;20126;-81
2022/09/26 04:45:01;;;;;;;41.05;25.00;;;;;;;;;;7366778;19;20011;-83
2022/09/26 04:47:26;;;;;;;40.15;24.15;;;;;;;;;;7357304;19;20037;-81
2022/09/26 04:49:51;;;;;;;40.53;23.57;;;;;;;;;;7362055;19;20018;-80
2022/09/26 04:52:16;;;;;;;36.43;23.10;;;;;;;;;;7369622;19;20686;-82
2022/09/26 04:54:42;;;;;;;38.93;24.77;;;;;;;;;;7356528;19;20838;-82
2022/09/26 04:57:08;;;;;;;37.03;23.65;;;;;;;;;;7370104;19;20355;-80
2022/09/26 04:59:33;;;;;;;36.58;23.90;;;;;;;;;;7370934;19;20337;-82
2022/09/26 05:01:58;;;;;;;39.05;24.27;;;;;;;;;;7360011;19;20014;-81
2022/09/26 05:04:23;;;;;;;38.03;24.08;;;;;;;;;;7354024;19;20105;-82
2022/09/26 05:06:48;;;;;;;35.67;23.80;;;;;;;;;;7354536;19;20006;-80
2022/09/26 05:09:14;;;;;;;37.65;23.95;;;;;;;;;;7368336;19;20315;-81
2022/09/26 05:11:39;;;;;;;35.15;23.00;;;;;;;;;;7369333;19;20021;-81
2022/09/26 05:14:07;;;;;;;36.30;24.20;;;;;;;;;;7357475;19;20380;-80
2022/09/26 05:16:32;;;;;;;33.88;22.88;;;;;;;;;;7368591;19;20264;-80
2022/09/26 05:18:57;;;;;;;34.40;21.85;;;;;;;;;;7369525;19;20026;-80
2022/09/26 05:21:22;;;;;;;30.65;19.83;;;;;;;;;;7367215;19;20006;-79
2022/09/26 05:26:37;;;;;;;31.30;20.60;;;;;;;;;;7363720;19;20378;-80
2022/09/26 05:29:05;;;;;;;29.42;19.40;;;;;;;;;;7375786;19;20015;-82
2022/09/26 05:31:36;;;;;;;27.48;18.45;;;;;;;;;;7371977;19;20109;-80
2022/09/26 05:34:02;;;;;;;27.13;18.73;;;;;;;;;;7345154;19;20018;-81
2022/09/26 05:36:28;;;;;;;27.10;18.65;;;;;;;;;;7366558;19;20007;-80
2022/09/26 05:38:53;;;;;;;25.20;15.80;;;;;;;;;;7354037;19;20347;-80
2022/09/26 05:41:21;;;;;;;25.47;17.03;;;;;;;;;;7369322;19;20359;-81
2022/09/26 05:43:46;;;;;;;25.70;16.58;;;;;;;;;;7365446;19;20813;-80
2022/09/26 05:46:12;;;;;;;27.02;17.23;;;;;;;;;;7364027;19;20521;-81
2022/09/26 05:48:38;;;;;;;21.92;15.32;;;;;;;;;;7361112;19;20014;-80
2022/09/26 05:51:04;;;;;;;24.70;16.27;;;;;;;;;;7343428;19;20010;-80
2022/09/26 05:53:30;;;;;;;23.20;15.13;;;;;;;;;;7350820;19;20553;-82
2022/09/26 05:55:55;;;;;;;25.30;16.00;;;;;;;;;;7359122;19;20018;-81
2022/09/26 05:58:21;;;;;;;23.80;15.90;;;;;;;;;;7362993;19;20047;-80
2022/09/26 06:00:46;;;;;;;23.67;15.27;;;;;;;;;;7361237;19;20769;-81
2022/09/26 06:03:12;;;;;;;20.98;13.77;;;;;;;;;;7362403;19;20271;-81
2022/09/26 06:05:37;;;;;;;22.73;14.43;;;;;;;;;;7358049;19;20486;-81
2022/09/26 06:08:02;;;;;;;24.48;14.52;;;;;;;;;;7371846;19;20018;-81
2022/09/26 06:10:28;;;;;;;22.45;13.57;;;;;;;;;;7370280;19;20434;-82
2022/09/26 06:12:53;;;;;;;19.65;12.68;;;;;;;;;;7356663;19;20450;-81
2022/09/26 06:15:18;;;;;;;18.40;12.20;;;;;;;;;;7351058;19;20023;-82
2022/09/26 06:17:46;;;;;;;19.90;12.40;;;;;;;;;;7357248;19;20641;-80
2022/09/26 06:20:11;;;;;;;19.65;11.63;;;;;;;;;;7362234;19;20271;-80
2022/09/26 06:22:37;;;;;;;22.15;11.90;;;;;;;;;;7367125;19;20020;-81
2022/09/26 06:25:03;;;;;;;20.42;11.73;;;;;;;;;;7357162;19;20026;-81
2022/09/26 06:27:28;;;;;;;17.13;10.40;;;;;;;;;;7290551;19;20434;-81
2022/09/26 06:29:53;;;;;;;15.60;10.70;;;;;;;;;;7349971;19;20595;-81
2022/09/26 06:32:18;;;;;;;14.50;9.70;;;;;;;;;;7354732;19;20271;-80
2022/09/26 06:34:43;;;;;;;19.10;10.23;;;;;;;;;;7361393;19;20824;-81
2022/09/26 06:37:09;;;;;;;16.98;9.85;;;;;;;;;;7368314;19;20263;-79
2022/09/26 06:39:37;;;;;;;14.23;8.93;;;;;;;;;;7369577;19;20333;-80
2022/09/26 06:42:04;;;;;;;16.15;9.43;;;;;;;;;;7367232;19;20272;-80
2022/09/26 06:44:29;;;;;;;17.10;10.38;;;;;;;;;;7357140;19;20600;-78
2022/09/26 06:46:54;;;;;;;14.90;9.67;;;;;;;;;;7371250;19;20006;-79
2022/09/26 06:49:20;;;;;;;16.10;10.07;;;;;;;;;;7364508;19;20268;-80
2022/09/26 06:51:45;;;;;;;14.63;9.55;;;;;;;;;;7371575;19;20022;-81
2022/09/26 06:54:10;;;;;;;17.77;10.52;;;;;;;;;;7372584;19;20010;-82
2022/09/26 06:56:36;;;;;;;19.20;10.67;;;;;;;;;;7367707;19;20007;-81
2022/09/26 06:59:02;;;;;;;17.67;10.82;;;;;;;;;;7358742;19;20813;-79
2022/09/26 07:01:27;;;;;;;15.48;10.75;;;;;;;;;;7371658;19;20073;-79
2022/09/26 07:03:52;;;;;;;21.60;10.75;;;;;;;;;;7314531;19;20025;-80
2022/09/26 07:06:18;;;;;;;16.37;10.83;;;;;;;;;;7366067;19;20070;-81
2022/09/26 07:08:43;;;;;;;16.80;9.65;;;;;;;;;;7371941;19;20372;-80
2022/09/26 07:11:08;;;;;;;17.70;10.57;;;;;;;;;;7368694;19;21171;-82
2022/09/26 07:13:34;;;;;;;18.70;10.77;;;;;;;;;;7363714;19;20853;-80
2022/09/26 07:15:59;;;;;;;19.45;10.55;;;;;;;;;;7361008;19;20251;-79
2022/09/26 07:18:24;;;;;;;17.58;10.48;;;;;;;;;;7365761;19;20509;-79
2022/09/26 07:20:50;;;;;;;17.25;10.13;;;;;;;;;;7356396;19;20011;-78
2022/09/26 07:23:15;;;;;;;16.70;9.90;;;;;;;;;;7356107;19;20013;-81
2022/09/26 07:25:44;;;;;;;16.40;10.32;;;;;;;;;;7365566;19;20071;-80
2022/09/26 07:28:09;;;;;;;19.60;10.98;;;;;;;;;;7368529;19;20038;-79
2022/09/26 07:30:35;;;;;;;18.30;9.40;;;;;;;;;;7363371;19;20018;-78
2022/09/26 07:33:04;;;;;;;15.57;9.48;;;;;;;;;;7365136;19;20014;-78
2022/09/26 07:35:33;;;;;;;15.57;10.23;;;;;;;;;;7364614;19;20080;-78
2022/09/26 07:37:58;;;;;;;15.93;9.85;;;;;;;;;;7367036;19;20018;-79
2022/09/26 07:40:24;;;;;;;15.60;10.18;;;;;;;;;;7358627;19;20013;-78
2022/09/26 07:42:51;;;;;;;14.85;10.05;;;;;;;;;;7368040;19;20003;-80
2022/09/26 07:45:16;;;;;;;16.77;9.52;;;;;;;;;;7370031;19;20010;-79
2022/09/26 07:50:25;;;;;;;13.25;9.10;;;;;;;;;;7363925;19;20311;-79
2022/09/26 07:52:51;;;;;;;12.95;9.07;;;;;;;;;;7366595;19;20022;-79
2022/09/26 07:55:18;;;;;;;18.48;10.18;;;;;;;;;;7369957;19;20469;-79
2022/09/26 07:57:43;;;;;;;12.65;8.30;;;;;;;;;;7368078;19;20007;-78
2022/09/26 08:00:11;;;;;;;14.13;8.13;;;;;;;;;;7354135;19;20014;-80
2022/09/26 08:02:38;;;;;;;13.65;9.20;;;;;;;;;;7365483;19;20035;-81
2022/09/26 08:05:04;;;;;;;13.60;8.25;;;;;;;;;;7330990;19;20010;-81
2022/09/26 08:07:29;;;;;;;14.25;8.40;;;;;;;;;;7356899;19;20011;-81
2022/09/26 08:09:55;;;;;;;16.13;8.85;;;;;;;;;;7359552;19;20033;-81
2022/09/26 08:12:20;;;;;;;18.13;9.00;;;;;;;;;;7357969;19;20401;-83
2022/09/26 08:14:47;;;;;;;13.27;8.23;;;;;;;;;;7363887;19;20354;-82
2022/09/26 08:17:13;;;;;;;12.57;8.43;;;;;;;;;;7361873;19;20495;-80
2022/09/26 08:19:38;;;;;;;13.95;8.98;;;;;;;;;;7354301;19;20078;-80
2022/09/26 08:22:06;;;;;;;14.77;8.95;;;;;;;;;;7362661;19;20358;-82
2022/09/26 08:24:31;;;;;;;15.25;9.05;;;;;;;;;;7365818;19;20014;-81
2022/09/26 08:26:57;;;;;;;11.93;7.78;;;;;;;;;;7366049;19;20018;-80
2022/09/26 08:29:22;;;;;;;16.25;8.30;;;;;;;;;;7364387;19;20014;-80
2022/09/26 08:31:47;;;;;;;13.05;8.40;;;;;;;;;;7375331;19;20002;-81
2022/09/26 08:34:13;;;;;;;13.82;8.25;;;;;;;;;;7367115;19;20015;-82
2022/09/26 08:36:38;;;;;;;12.57;7.93;;;;;;;;;;7352286;19;20415;-85
2022/09/26 08:39:03;;;;;;;13.10;8.57;;;;;;;;;;7372550;19;20018;-80
2022/09/26 08:41:48;;;;;;;13.38;8.35;;;;;;;;;;7365888;19;20276;-83
2022/09/26 08:44:27;;;;;;;15.45;8.35;;;;;;;;;;7373889;19;20085;-80
2022/09/26 08:47:04;;;;;;;13.90;7.57;;;;;;;;;;7368496;19;20036;-80
2022/09/26 08:49:38;;;;;;;12.27;7.90;;;;;;;;;;7368978;19;20441;-82
2022/09/26 08:52:11;;;;;;;15.60;7.80;;;;;;;;;;7373673;19;20007;-81
2022/09/26 08:54:41;;;;;;;12.02;7.32;;;;;;;;;;7366886;19;20023;-81
2022/09/26 08:57:15;;;;;;;12.70;7.00;;;;;;;;;;7374214;19;20006;-82
2022/09/26 08:59:42;;;;;;;11.13;6.97;;;;;;;;;;7378379;19;20022;-82
2022/09/26 09:02:26;;;;;;;12.10;6.82;;;;;;;;;;7361754;19;20082;-80
2022/09/26 09:04:51;;;;;;;13.02;7.15;;;;;;;;;;7339454;19;20006;-80
2022/09/26 09:07:20;;;;;;;14.07;6.30;;;;;;;;;;7352734;19;20457;-81
2022/09/26 09:09:45;;;;;;;10.40;5.97;;;;;;;;;;7367115;19;20025;-81
2022/09/26 09:12:18;;;;;;;10.23;6.00;;;;;;;;;;7371232;19;20015;-81
2022/09/26 09:14:51;;;;;;;10.15;6.03;;;;;;;;;;7366352;19;20735;-81
2022/09/26 09:17:25;;;;;;;11.85;6.15;;;;;;;;;;7364778;19;20046;-81
2022/09/26 09:20:09;;;;;;;14.50;6.63;;;;;;;;;;7358978;19;20010;-79
2022/09/26 09:22:45;;;;;;;10.00;6.53;;;;;;;;;;7368643;19;20022;-80
2022/09/26 09:25:21;;;;;;;12.32;6.40;;;;;;;;;;7370125;19;20015;-81
2022/09/26 09:27:58;;;;;;;12.27;5.95;;;;;;;;;;7366746;19;20019;-81
2022/09/26 09:30:40;;;;;;;10.00;5.97;;;;;;;;;;7371949;19;20007;-79
2022/09/26 09:33:11;;;;;;;9.98;5.97;;;;;;;;;;7366889;19;20010;-80
2022/09/26 09:35:38;;;;;;;12.23;5.88;;;;;;;;;;7359199;19;20018;-79
2022/09/26 09:38:05;;;;;;;10.13;6.18;;;;;;;;;;7359783;19;20502;-81
2022/09/26 09:40:34;;;;;;;13.30;6.22;;;;;;;;;;7368190;19;20720;-79
2022/09/26 09:43:04;;;;;;;12.20;5.70;;;;;;;;;;7369116;19;20026;-81
2022/09/26 09:45:32;;;;;;;10.07;4.88;;;;;;;;;;7369786;19;20702;-79
2022/09/26 09:47:58;;;;;;;9.82;5.53;;;;;;;;;;7369042;19;20021;-79
2022/09/26 09:50:26;;;;;;;10.48;5.22;;;;;;;;;;7367350;19;20333;-83
2022/09/26 09:52:51;;;;;;;12.18;5.10;;;;;;;;;;7373159;19;20449;-81
2022/09/26 09:55:29;;;;;;;7.88;4.97;;;;;;;;;;7369613;19;20011;-80
2022/09/26 09:58:14;;;;;;;9.95;4.70;;;;;;;;;;7359912;19;20251;-78
2022/09/26 10:00:42;;;;;;;7.70;5.13;;;;;;;;;;7369944;19;20632;-78
2022/09/26 10:03:26;;;;;;;10.05;4.85;;;;;;;;;;7353323;19;20010;-78
2022/09/26 10:05:57;;;;;;;11.50;5.03;;;;;;;;;;7360097;19;20011;-79
2022/09/26 10:08:30;;;;;;;9.85;4.47;;;;;;;;;;7365190;19;20419;-78
2022/09/26 10:10:55;;;;;;;14.32;4.57;;;;;;;;;;7370538;19;20529;-79
2022/09/26 10:13:22;;;;;;;11.85;4.53;;;;;;;;;;7370584;19;20010;-81
2022/09/26 10:15:54;;;;;;;9.32;4.35;;;;;;;;;;7364266;19;20915;-80
2022/09/26 10:18:20;;;;;;;11.85;4.57;;;;;;;;;;7327363;19;20014;-80
2022/09/26 10:20:52;;;;;;;7.00;4.57;;;;;;;;;;7352109;19;20048;-78
2022/09/26 10:23:26;;;;;;;11.18;4.15;;;;;;;;;;7366871;19;20015;-78
2022/09/26 10:25:55;;;;;;;7.55;3.88;;;;;;;;;;7365377;19;20010;-80
2022/09/26 10:28:23;;;;;;;7.55;3.72;;;;;;;;;;7361060;19;20003;-82
2022/09/26 10:30:49;;;;;;;9.90;4.07;;;;;;;;;;7365296;19;20010;-77
2022/09/26 10:33:25;;;;;;;8.18;4.20;;;;;;;;;;7363995;19;20706;-78
2022/09/26 10:35:57;;;;;;;9.27;4.05;;;;;;;;;;7364115;19;20034;-80
2022/09/26 10:38:26;;;;;;;8.38;4.50;;;;;;;;;;7370373;19;20014;-80
2022/09/26 10:41:00;;;;;;;9.55;3.75;;;;;;;;;;7359098;19;20017;-77
2022/09/26 10:43:33;;;;;;;8.60;4.10;;;;;;;;;;7336213;19;20022;-78
2022/09/26 10:46:25;;;;;;;8.88;3.63;;;;;;;;;;7364578;19;20033;-82
2022/09/26 10:48:54;;;;;;;13.88;3.80;;;;;;;;;;7358520;19;20003;-79
2022/09/26 10:51:23;;;;;;;8.93;3.90;;;;;;;;;;7354935;19;20011;-82
2022/09/26 10:53:51;;;;;;;8.15;3.67;;;;;;;;;;7368587;19;20044;-81
2022/09/26 10:56:25;;;;;;;7.97;3.83;;;;;;;;;;7370750;19;20371;-78
2022/09/26 10:58:53;;;;;;;8.93;4.10;;;;;;;;;;7336070;19;20468;-83
2022/09/26 11:01:21;;;;;;;9.80;4.05;;;;;;;;;;7361727;19;20125;-78
2022/09/26 11:03:48;;;;;;;11.93;4.00;;;;;;;;;;7325553;19;20398;-80
2022/09/26 11:06:26;;;;;;;8.13;3.60;;;;;;;;;;7361766;19;20108;-77
2022/09/26 11:08:56;;;;;;;9.18;3.92;;;;;;;;;;7339531;19;20348;-78
2022/09/26 11:11:21;;;;;;;8.65;3.70;;;;;;;;;;7364275;19;20047;-79
2022/09/26 11:14:02;;;;;;;14.82;4.30;;;;;;;;;;7330713;19;20002;-78
2022/09/26 11:16:28;;;;;;;9.68;3.63;;;;;;;;;;7369073;19;20457;-78
2022/09/26 11:19:00;;;;;;;9.18;3.90;;;;;;;;;;7350832;19;20029;-80
2022/09/26 11:21:35;;;;;;;10.07;3.40;;;;;;;;;;7329537;19;20006;-79
2022/09/26 11:24:10;;;;;;;11.00;4.00;;;;;;;;;;7360610;19;20448;-80
2022/09/26 11:26:48;;;;;;;9.77;4.47;;;;;;;;;;7351080;19;20006;-79
2022/09/26 11:29:32;;;;;;;8.18;3.35;;;;;;;;;;7354776;19;20621;-82
2022/09/26 11:31:58;;;;;;;10.93;4.10;;;;;;;;;;7367659;19;20100;-80
2022/09/26 11:34:25;;;;;;;8.50;3.67;;;;;;;;;;7347544;19;20002;-81
2022/09/26 11:37:00;;;;;;;9.77;4.28;;;;;;;;;;7359054;19;20026;-81
2022/09/26 11:39:44;;;;;;;11.35;3.92;;;;;;;;;;7359805;19;20017;-78
2022/09/26 11:42:24;;;;;;;9.50;3.88;;;;;;;;;;7364787;19;20035;-78
2022/09/26 11:44:52;;;;;;;8.68;3.65;;;;;;;;;;7368637;19;20035;-78
2022/09/26 11:47:35;;;;;;;10.55;3.58;;;;;;;;;;7362263;19;20015;-78
2022/09/26 11:50:19;;;;;;;8.20;3.75;;;;;;;;;;7352546;19;20816;-81
2022/09/26 11:52:53;;;;;;;7.47;3.53;;;;;;;;;;7355666;19;20753;-79
2022/09/26 11:55:18;;;;;;;6.97;2.88;;;;;;;;;;7333321;19;20149;-79
2022/09/26 11:57:49;;;;;;;9.02;2.95;;;;;;;;;;7365863;19;20039;-77
2022/09/26 12:00:23;;;;;;;7.57;3.28;;;;;;;;;;7363521;19;20291;-78
2022/09/26 12:02:48;;;;;;;;;;;;;;;;;;7363056;19;20350;-81
2022/09/26 12:05:36;;;;;;;7.90;3.25;;;;;;;;;;7368580;19;19918;-81
2022/09/26 12:08:20;;;;;;;12.40;3.55;;;;;;;;;;7368787;19;20034;-80
2022/09/26 12:10:52;;;;;;;7.47;3.15;;;;;;;;;;7375373;19;20017;-78
2022/09/26 12:13:33;;;;;;;8.70;3.53;;;;;;;;;;7369939;19;20037;-80
2022/09/26 12:16:08;;;;;;;9.00;3.22;;;;;;;;;;7373808;19;20396;-81
2022/09/26 12:18:45;;;;;;;9.57;2.80;;;;;;;;;;7366046;19;20022;-80
2022/09/26 12:21:10;;;;;;;9.02;3.10;;;;;;;;;;7350889;19;20040;-80
2022/09/26 12:23:59;;;;;;;9.73;3.17;;;;;;;;;;7363936;19;20429;-81
2022/09/26 12:26:36;;;;;;;6.85;3.00;;;;;;;;;;7371847;19;20637;-82
2022/09/26 12:29:02;;;;;;;10.80;3.22;;;;;;;;;;7340278;19;20007;-79
2022/09/26 12:31:27;;;;;;;6.50;2.45;;;;;;;;;;7369499;19;20034;-79
2022/09/26 12:34:01;;;;;;;9.10;2.55;;;;;;;;;;7359029;19;20343;-77
2022/09/26 12:36:30;;;;;;;9.57;2.72;;;;;;;;;;7372979;19;20023;-77
2022/09/26 12:38:58;;;;;;;7.32;2.58;;;;;;;;;;7376030;19;20043;-79
2022/09/26 12:41:33;;;;;;;8.40;2.47;;;;;;;;;;7362913;19;20501;-78
2022/09/26 12:44:04;;;;;;;7.97;2.55;;;;;;;;;;7371217;19;20480;-79
2022/09/26 12:46:41;;;;;;;8.02;2.50;;;;;;;;;;7372821;19;20010;-78
2022/09/26 12:49:15;;;;;;;7.57;2.70;;;;;;;;;;7369572;19;20014;-81
2022/09/26 12:51:43;;;;;;;6.35;2.20;;;;;;;;;;7375530;19;20453;-78
2022/09/26 12:54:08;;;;;;;13.32;2.63;;;;;;;;;;7371745;19;20018;-78
2022/09/26 12:56:36;;;;;;;11.30;3.23;;;;;;;;;;7369551;19;20027;-81
2022/09/26 12:59:11;;;;;;;11.90;2.65;;;;;;;;;;7357532;19;20955;-82
2022/09/26 13:01:43;;;;;;;8.88;2.88;;;;;;;;;;7360170;19;20612;-80
2022/09/26 13:04:19;;;;;;;10.45;2.72;;;;;;;;;;7367364;19;20011;-79
2022/09/26 13:06:57;;;;;;;12.07;2.58;;;;;;;;;;7369400;19;20002;-78
2022/09/26 13:09:39;;;;;;;8.27;2.92;;;;;;;;;;7363115;19;20316;-80
2022/09/26 13:12:08;;;;;;;9.77;3.17;;;;;;;;;;7363814;19;20383;-82
2022/09/26 13:14:48;;;;;;;8.50;3.05;;;;;;;;;;7365290;19;20003;-82
2022/09/26 13:17:20;;;;;;;12.38;3.78;;;;;;;;;;7373100;19;20021;-79
2022/09/26 13:19:50;;;;;;;11.85;3.65;;;;;;;;;;7354346;19;20492;-79
2022/09/26 13:22:16;;;;;;;8.50;3.13;;;;;;;;;;7367730;19;20070;-80
2022/09/26 13:24:47;;;;;;;9.32;3.30;;;;;;;;;;7368279;19;20066;-82
2022/09/26 13:27:20;;;;;;;11.70;3.40;;;;;;;;;;7367049;19;20011;-80
2022/09/26 13:29:49;;;;;;;10.57;3.35;;;;;;;;;;7367532;19;20108;-80
2022/09/26 13:32:22;;;;;;;8.90;3.47;;;;;;;;;;7373030;19;20011;-83
2022/09/26 13:34:53;;;;;;;8.32;4.40;;;;;;;;;;7365623;19;20029;-79
2022/09/26 13:37:27;;;;;;;10.88;4.00;;;;;;;;;;7372586;19;20368;-79
2022/09/26 13:39:57;;;;;;;12.32;3.47;;;;;;;;;;7370707;19;20014;-79
2022/09/26 13:42:35;;;;;;;13.45;3.88;;;;;;;;;;7369845;19;20018;-79
2022/09/26 13:45:06;;;;;;;14.63;4.50;;;;;;;;;;7370462;19;20015;-79
2022/09/26 13:47:40;;;;;;;9.68;4.07;;;;;;;;;;7369433;19;20006;-80
2022/09/26 13:50:22;;;;;;;9.57;3.65;;;;;;;;;;7363872;19;20018;-81
2022/09/26 13:53:01;;;;;;;12.43;3.90;;;;;;;;;;7372588;19;20505;-79
2022/09/26 13:55:28;;;;;;;9.05;3.78;;;;;;;;;;7369836;19;20014;-79
2022/09/26 13:58:02;;;;;;;9.50;4.10;;;;;;;;;;7358835;19;20029;-81
2022/09/26 14:00:30;;;;;;;8.50;4.32;;;;;;;;;;7373377;19;20022;-78
2022/09/26 14:03:17;;;;;;;10.88;4.13;;;;;;;;;;7370376;19;20025;-79
2022/09/26 14:05:48;;;;;;;13.60;4.63;;;;;;;;;;7365253;19;20027;-79
2022/09/26 14:11:29;;;;;;;16.50;4.70;;;;;;;;;;7359432;19;20010;-81
2022/09/26 14:14:18;;;;;;;15.02;5.03;;;;;;;;;;7368704;19;20014;-81
2022/09/26 14:16:44;;;;;;;8.43;4.45;;;;;;;;;;7355922;19;20023;-80
2022/09/26 14:19:35;;;;;;;12.80;4.25;;;;;;;;;;7366562;19;20027;-80
2022/09/26 14:22:20;;;;;;;10.02;4.18;;;;;;;;;;7354534;19;20014;-80
2022/09/26 14:24:46;;;;;;;8.60;3.63;;;;;;;;;;7368212;19;20002;-82
2022/09/26 14:27:11;;;;;;;16.13;4.55;;;;;;;;;;7361337;19;20483;-83
2022/09/26 14:29:41;;;;;;;9.88;4.10;;;;;;;;;;7365474;19;20029;-82
2022/09/26 14:32:06;;;;;;;8.65;4.40;;;;;;;;;;7365874;19;20010;-81
2022/09/26 14:34:42;;;;;;;10.60;4.35;;;;;;;;;;7366356;19;20049;-81
2022/09/26 14:37:23;;;;;;;9.93;4.68;;;;;;;;;;7316697;19;20031;-80
2022/09/26 14:40:08;;;;;;;12.35;4.70;;;;;;;;;;7359882;19;20053;-83
2022/09/26 14:42:54;;;;;;;11.48;5.07;;;;;;;;;;7363574;19;20351;-81
2022/09/26 14:45:23;;;;;;;11.10;4.85;;;;;;;;;;7352943;19;20012;-83
2022/09/26 14:47:59;;;;;;;11.27;4.50;;;;;;;;;;7353326;19;20002;-79
2022/09/26 14:50:26;;;;;;;13.13;4.80;;;;;;;;;;7361477;19;20011;-80
2022/09/26 14:52:53;;;;;;;10.13;4.80;;;;;;;;;;7370362;19;20410;-79